This demonstration page uses our WeatherBlox Daily Observations layout. Learn more.

38.89511, -77.03637

Hourly Observations for July 14, 2019

Temp ( °F °C ) Dew Point ( °F °C ) Humidity (%) Winds ( mph kmh ) Pressure ( in mb ) Visibility ( mi km ) Precip ( " mm )
12:52 am 00:52 Mostly Cloudy 80 26.7 68 20 67 67 SW 5 7 29.94 1014 10 16.09344 0 0
1:52 am 01:52 Mostly Cloudy 80 26.7 68 20 67 67 W 7 11 29.94 1014 10 16.09344 0 0
2:52 am 02:52 Mostly Cloudy 79 26.1 67 19.4 67 67 W 6 9 29.94 1014 10 16.09344 0 0
3:52 am 03:52 Mostly Cloudy 78 25.6 69 20.6 74 74 S 6 9 29.97 1015 10 16.09344 0 0
4:52 am 04:52 Mostly Cloudy 76 24.4 70 21.1 82 82 S 5 7 29.97 1015 10 16.09344 0 0
5:52 am 05:52 Partly Cloudy 75 23.9 67 19.4 76 76 WSW 3 6 29.97 1015 10 16.09344 0 0
6:52 am 06:52 Partly Cloudy 77 25 67 19.4 71 71 SW 5 7 30 1016 10 16.09344 0 0
7:52 am 07:52 Partly Cloudy 80 26.7 67 19.4 64 64 W 3 6 30 1016 10 16.09344 0 0
8:52 am 08:52 Partly Cloudy 84 28.9 66 18.9 55 55 VRB 5 7 30 1016 10 16.09344 0 0
9:52 am 09:52 Partly Cloudy 88 31.1 65 18.3 46 46 VRB 5 7 30 1016 10 16.09344 0 0
10:52 am 10:52 Mostly Cloudy 90 32.2 66 18.9 45 45 NW 9 15 30 1016 10 16.09344 0 0
11:52 am 11:52 Mostly Cloudy 91 32.8 69 20.6 49 49 NNW 5 7 30 1016 10 16.09344 0 0
12:52 pm 12:52 Sunny 92 33.3 68 20 46 46 NNW 16 26 30 1016 10 16.09344 0 0
1:52 pm 13:52 Mostly Cloudy 93 33.9 67 19.4 42 42 NNW 14 22 29.97 1015 10 16.09344 0 0
2:52 pm 14:52 Mostly Cloudy 93 33.9 68 20 44 44 N 14 22 29.97 1015 10 16.09344 0 0
3:07 pm 15:07 Mostly Cloudy 91 32.8 67 19.4 45 45 N 13 20 30 1016 9 14.484096 0 0
3:52 pm 15:52 Mostly Cloudy 93 33.9 69 20.6 46 46 NNE 10 17 29.97 1015 10 16.09344 0 0
4:52 pm 16:52 Mostly Cloudy 93 33.9 69 20.6 46 46 VRB 5 7 29.94 1014 10 16.09344 0 0
5:52 pm 17:52 Mostly Cloudy 91 32.8 68 20 47 47 W 6 9 29.94 1014 10 16.09344 0 0
6:52 pm 18:52 Mostly Cloudy 92 33.3 67 19.4 44 44 NNW 10 17 29.94 1014 10 16.09344 0 0
7:52 pm 19:52 Mostly Cloudy 89 31.7 65 18.3 45 45 N 7 11 29.97 1015 10 16.09344 0 0
8:52 pm 20:52 Partly Cloudy 86 30 66 18.9 51 51 N 9 15 29.97 1015 10 16.09344 0 0
9:52 pm 21:52 Partly Cloudy 84 28.9 65 18.3 53 53 N 9 15 30 1016 10 16.09344 0 0
10:52 pm 22:52 Mostly Cloudy 83 28.3 66 18.9 57 57 N 8 13 30.03 1017 10 16.09344 0 0
11:52 pm 23:52 Mostly Cloudy 82 27.8 65 18.3 56 56 N 9 15 30.03 1017 10 16.09344 0 0

Powered by AerisWeather